createdAt,value
2017-03-27T00:00:51.704Z,0
2017-03-27T00:02:03.095Z,0
2017-03-27T00:03:14.086Z,0
2017-03-27T00:04:25.287Z,0
2017-03-27T00:05:36.278Z,0
2017-03-27T00:06:47.471Z,0
2017-03-27T00:07:58.462Z,0
2017-03-27T00:09:09.461Z,0
2017-03-27T00:10:20.441Z,0
2017-03-27T00:11:31.876Z,0
2017-03-27T00:12:43.087Z,0
2017-03-27T00:13:54.078Z,0
2017-03-27T00:15:05.069Z,0
2017-03-27T00:16:16.057Z,0
2017-03-27T00:17:27.051Z,0
2017-03-27T00:18:38.046Z,0
2017-03-27T00:19:49.043Z,0
2017-03-27T00:21:00.236Z,0
2017-03-27T00:22:11.673Z,0
2017-03-27T00:23:22.664Z,0
2017-03-27T00:24:33.645Z,0
2017-03-27T00:25:44.620Z,0
2017-03-27T00:26:55.610Z,0
2017-03-27T00:28:06.644Z,0
2017-03-27T00:29:17.629Z,0
2017-03-27T00:30:28.614Z,0
2017-03-27T00:31:39.802Z,0
2017-03-27T00:32:50.797Z,0
2017-03-27T00:34:01.794Z,0
2017-03-27T00:35:12.979Z,0
2017-03-27T00:36:24.171Z,0
2017-03-27T00:37:35.357Z,0
2017-03-27T00:38:46.352Z,0
2017-03-27T00:39:57.342Z,0
2017-03-27T00:41:08.573Z,0
2017-03-27T00:42:19.561Z,0
2017-03-27T00:43:31.006Z,0
2017-03-27T00:44:41.990Z,0
2017-03-27T00:45:53.174Z,0
2017-03-27T00:47:04.163Z,0
2017-03-27T00:48:15.159Z,0
2017-03-27T00:49:26.158Z,0
2017-03-27T00:50:37.145Z,0
2017-03-27T00:51:48.138Z,0
2017-03-27T00:52:59.129Z,0
2017-03-27T00:54:10.363Z,0
2017-03-27T00:55:21.362Z,0
2017-03-27T00:56:32.755Z,0
2017-03-27T00:57:43.753Z,0
2017-03-27T00:58:54.751Z,0
2017-03-27T01:00:05.749Z,0
2017-03-27T01:01:16.732Z,0
2017-03-27T01:02:27.717Z,0
2017-03-27T01:03:38.937Z,0
2017-03-27T01:04:50.178Z,0
2017-03-27T01:06:01.168Z,0
2017-03-27T01:07:12.151Z,0
2017-03-27T01:08:23.139Z,0
2017-03-27T01:09:34.131Z,0
2017-03-27T01:10:45.120Z,0
2017-03-27T01:11:56.317Z,0
2017-03-27T01:13:07.309Z,0
2017-03-27T01:14:18.303Z,0
2017-03-27T01:15:29.285Z,0
2017-03-27T01:16:40.476Z,0
2017-03-27T01:17:51.465Z,0
2017-03-27T01:19:02.467Z,0
2017-03-27T01:20:13.710Z,0
2017-03-27T01:21:24.693Z,0
2017-03-27T01:22:35.884Z,0
2017-03-27T01:23:46.885Z,0
2017-03-27T01:24:57.884Z,0
2017-03-27T01:26:09.078Z,0
2017-03-27T01:27:20.063Z,0
2017-03-27T01:28:31.045Z,0
2017-03-27T01:29:42.037Z,0
2017-03-27T01:30:53.027Z,0
2017-03-27T01:32:04.215Z,0
2017-03-27T01:33:15.200Z,0
2017-03-27T01:34:26.196Z,0
2017-03-27T01:35:37.242Z,0
2017-03-27T01:36:48.229Z,0
2017-03-27T01:37:59.212Z,0
2017-03-27T01:39:10.212Z,0
2017-03-27T01:40:21.406Z,0
2017-03-27T01:41:32.595Z,0
2017-03-27T01:42:43.572Z,0
2017-03-27T01:43:54.566Z,0
2017-03-27T01:45:05.553Z,0
2017-03-27T01:46:16.531Z,0
2017-03-27T01:47:27.727Z,0
2017-03-27T01:48:38.723Z,0
2017-03-27T01:49:49.912Z,0
2017-03-27T01:51:01.098Z,0
2017-03-27T01:52:12.091Z,0
2017-03-27T01:53:23.094Z,0
2017-03-27T01:54:34.109Z,0
2017-03-27T01:55:45.297Z,0
2017-03-27T01:56:56.368Z,0
2017-03-27T01:58:07.554Z,0
2017-03-27T01:59:18.758Z,0
2017-03-27T02:00:29.753Z,0
2017-03-27T02:01:40.732Z,0
2017-03-27T02:02:51.721Z,0
2017-03-27T02:04:02.714Z,0
2017-03-27T02:05:13.902Z,0
2017-03-27T02:06:25.094Z,0
2017-03-27T02:07:36.075Z,0
2017-03-27T02:08:47.066Z,0
2017-03-27T02:09:58.055Z,0
2017-03-27T02:11:09.040Z,0
2017-03-27T02:12:20.017Z,0
2017-03-27T02:13:31.008Z,0
2017-03-27T02:14:41.995Z,0
2017-03-27T02:15:52.983Z,0
2017-03-27T02:17:03.968Z,0
2017-03-27T02:18:14.956Z,0
2017-03-27T02:19:25.949Z,0
2017-03-27T02:20:37.132Z,0
2017-03-27T02:21:48.372Z,0
2017-03-27T02:22:59.360Z,0
2017-03-27T02:24:10.783Z,0
2017-03-27T02:25:21.760Z,0
2017-03-27T02:26:32.742Z,0
2017-03-27T02:27:43.732Z,0
2017-03-27T02:28:54.929Z,0
2017-03-27T02:30:05.911Z,0
2017-03-27T02:31:16.903Z,0
2017-03-27T02:32:27.886Z,0
2017-03-27T02:33:38.873Z,0
2017-03-27T02:34:50.068Z,0
2017-03-27T02:36:01.262Z,0
2017-03-27T02:37:12.301Z,0
2017-03-27T02:38:23.290Z,0
2017-03-27T02:39:34.483Z,0
2017-03-27T02:40:45.476Z,0
2017-03-27T02:41:56.459Z,0
2017-03-27T02:43:07.453Z,0
2017-03-27T02:44:18.442Z,0
2017-03-27T02:45:29.426Z,0
2017-03-27T02:46:40.411Z,0
2017-03-27T02:47:51.399Z,0
2017-03-27T02:49:02.411Z,0
2017-03-27T02:50:13.612Z,0
2017-03-27T02:51:24.598Z,0
2017-03-27T02:52:35.639Z,0
2017-03-27T02:53:46.829Z,0
2017-03-27T02:54:57.847Z,0
2017-03-27T02:56:08.836Z,0
2017-03-27T02:57:19.823Z,0
2017-03-27T02:58:31.214Z,0
2017-03-27T02:59:42.406Z,0
2017-03-27T03:00:53.597Z,0
2017-03-27T03:02:04.588Z,0
2017-03-27T03:03:15.581Z,0
2017-03-27T03:04:26.568Z,0
2017-03-27T03:05:37.558Z,0
2017-03-27T03:06:48.548Z,0
2017-03-27T03:07:59.796Z,0
2017-03-27T03:09:10.793Z,0
2017-03-27T03:10:21.993Z,0
2017-03-27T03:11:33.179Z,0
2017-03-27T03:12:44.171Z,0
2017-03-27T03:13:55.168Z,0
2017-03-27T03:15:06.154Z,0
2017-03-27T03:16:17.137Z,0
2017-03-27T03:17:28.122Z,0
2017-03-27T03:18:39.763Z,0
2017-03-27T03:19:50.960Z,0
2017-03-27T03:21:01.948Z,0
2017-03-27T03:22:12.944Z,0
2017-03-27T03:23:23.933Z,0
2017-03-27T03:24:34.934Z,0
2017-03-27T03:25:45.931Z,0
2017-03-27T03:26:56.913Z,0
2017-03-27T03:28:07.904Z,0
2017-03-27T03:29:18.944Z,0
2017-03-27T03:30:30.137Z,0
2017-03-27T03:31:41.126Z,0
2017-03-27T03:32:52.515Z,0
2017-03-27T03:34:03.504Z,0
2017-03-27T03:35:14.486Z,0
2017-03-27T03:36:25.478Z,0
2017-03-27T03:37:36.480Z,0
2017-03-27T03:38:47.462Z,0
2017-03-27T03:39:58.515Z,0
2017-03-27T03:41:09.522Z,0
2017-03-27T03:42:20.511Z,0
2017-03-27T03:43:31.701Z,0
2017-03-27T03:44:42.884Z,0
2017-03-27T03:45:53.867Z,0
2017-03-27T03:47:04.855Z,0
2017-03-27T03:48:15.843Z,0
2017-03-27T03:49:26.842Z,0
2017-03-27T03:50:37.822Z,0
2017-03-27T03:51:48.807Z,0
2017-03-27T03:52:59.801Z,0
2017-03-27T03:54:10.790Z,0
2017-03-27T03:55:22.024Z,0
2017-03-27T03:56:33.003Z,0
2017-03-27T03:57:44.007Z,0
2017-03-27T03:58:54.996Z,0
2017-03-27T04:00:05.981Z,0
2017-03-27T04:01:16.964Z,0
2017-03-27T04:02:28.158Z,0
2017-03-27T04:03:39.154Z,0
2017-03-27T04:04:50.347Z,0
2017-03-27T04:06:01.397Z,0
2017-03-27T04:07:12.385Z,0
2017-03-27T04:08:23.578Z,0
2017-03-27T04:09:34.577Z,0
2017-03-27T04:10:45.574Z,0
2017-03-27T04:11:56.565Z,0
2017-03-27T04:13:07.573Z,0
2017-03-27T04:14:18.560Z,0
2017-03-27T04:15:29.546Z,0
2017-03-27T04:16:40.585Z,0
2017-03-27T04:17:51.578Z,0
2017-03-27T04:19:02.573Z,0
2017-03-27T04:20:13.557Z,0
2017-03-27T04:21:24.551Z,0
2017-03-27T04:22:35.738Z,0
2017-03-27T04:23:46.732Z,0
2017-03-27T04:24:57.727Z,0
2017-03-27T04:26:08.720Z,0
2017-03-27T04:27:19.706Z,0
2017-03-27T04:28:30.694Z,0
2017-03-27T04:29:41.696Z,0
2017-03-27T04:30:52.678Z,0
2017-03-27T04:32:03.672Z,0
2017-03-27T04:33:14.657Z,0
2017-03-27T04:34:25.656Z,0
2017-03-27T04:35:36.654Z,0
2017-03-27T04:36:47.638Z,0
2017-03-27T04:37:58.630Z,4
2017-03-27T04:39:09.823Z,0
2017-03-27T04:40:20.804Z,4
2017-03-27T04:41:31.785Z,0
2017-03-27T04:42:42.779Z,4
2017-03-27T04:43:53.976Z,4
2017-03-27T04:45:04.962Z,4
2017-03-27T04:46:15.943Z,8
2017-03-27T04:47:27.181Z,8
2017-03-27T04:48:38.183Z,8
2017-03-27T04:49:49.164Z,12
2017-03-27T04:51:00.361Z,12
2017-03-27T04:52:11.541Z,16
2017-03-27T04:53:22.522Z,20
2017-03-27T04:54:33.511Z,24
2017-03-27T04:55:44.494Z,28
2017-03-27T04:56:55.483Z,36
2017-03-27T04:58:06.749Z,44
2017-03-27T04:59:17.742Z,52
2017-03-27T05:00:28.724Z,60
2017-03-27T05:01:39.710Z,76
2017-03-27T05:02:50.907Z,88
2017-03-27T05:04:02.086Z,104
2017-03-27T05:05:13.088Z,120
2017-03-27T05:06:24.274Z,140
2017-03-27T05:07:35.470Z,160
2017-03-27T05:08:46.468Z,184
2017-03-27T05:09:57.463Z,208
2017-03-27T05:11:08.850Z,232
2017-03-27T05:12:20.039Z,264
2017-03-27T05:13:31.281Z,300
2017-03-27T05:14:42.277Z,332
2017-03-27T05:15:53.262Z,368
2017-03-27T05:17:04.251Z,408
2017-03-27T05:18:15.439Z,448
2017-03-27T05:19:26.431Z,496
2017-03-27T05:20:37.418Z,544
2017-03-27T05:21:48.607Z,596
2017-03-27T05:22:59.591Z,652
2017-03-27T05:24:10.794Z,708
2017-03-27T05:25:21.788Z,772
2017-03-27T05:26:32.783Z,836
2017-03-27T05:27:43.784Z,904
2017-03-27T05:28:55.015Z,976
2017-03-27T05:30:06.005Z,1048
2017-03-27T05:31:16.993Z,1120
2017-03-27T05:32:28.014Z,1204
2017-03-27T05:33:39.010Z,1284
2017-03-27T05:34:49.998Z,1448
2017-03-27T05:36:00.990Z,1932
2017-03-27T05:37:11.982Z,3268
2017-03-27T05:38:22.976Z,4208
2017-03-27T05:39:34.172Z,4604
2017-03-27T05:40:45.163Z,5672
2017-03-27T05:41:56.141Z,8704
2017-03-27T05:43:07.129Z,10304
2017-03-27T05:44:18.117Z,10432
2017-03-27T05:45:29.109Z,5868
2017-03-27T05:46:40.297Z,6656
2017-03-27T05:47:51.498Z,9616
2017-03-27T05:49:02.703Z,6796
2017-03-27T05:50:13.888Z,3696
2017-03-27T05:51:24.870Z,5784
2017-03-27T05:52:35.862Z,7452
2017-03-27T05:53:46.844Z,7644
2017-03-27T05:54:58.078Z,9808
2017-03-27T05:56:09.264Z,14272
2017-03-27T05:57:20.236Z,15040
2017-03-27T05:58:31.425Z,7724
2017-03-27T05:59:42.426Z,6292
2017-03-27T06:00:53.414Z,13120
2017-03-27T06:02:04.394Z,12992
2017-03-27T06:03:15.383Z,13984
2017-03-27T06:04:26.385Z,9732
2017-03-27T06:05:37.373Z,12392
2017-03-27T06:06:48.354Z,14592
2017-03-27T06:07:59.347Z,10360
2017-03-27T06:09:10.342Z,16064
2017-03-27T06:10:21.748Z,20800
2017-03-27T06:11:32.781Z,19872
2017-03-27T06:12:43.778Z,11168
2017-03-27T06:13:54.779Z,16192
2017-03-27T06:15:05.779Z,13596
2017-03-27T06:16:16.774Z,12616
2017-03-27T06:17:27.755Z,7100
2017-03-27T06:18:38.958Z,9772
2017-03-27T06:19:49.943Z,19712
2017-03-27T06:21:00.933Z,19232
2017-03-27T06:22:11.921Z,16320
2017-03-27T06:23:22.917Z,16160
2017-03-27T06:24:33.909Z,16384
2017-03-27T06:25:44.907Z,19392
2017-03-27T06:26:55.895Z,19328
2017-03-27T06:28:07.091Z,19936
2017-03-27T06:29:18.087Z,22688
2017-03-27T06:30:29.078Z,19072
2017-03-27T06:31:40.124Z,19584
2017-03-27T06:32:51.126Z,19520
2017-03-27T06:34:02.134Z,20896
2017-03-27T06:35:13.335Z,24512
2017-03-27T06:36:24.325Z,26592
2017-03-27T06:37:35.324Z,23136
2017-03-27T06:38:46.313Z,13388
2017-03-27T06:39:57.309Z,13984
2017-03-27T06:41:08.504Z,18208
2017-03-27T06:42:19.549Z,19296
2017-03-27T06:43:30.541Z,17184
2017-03-27T06:44:41.534Z,20992
2017-03-27T06:45:52.530Z,25696
2017-03-27T06:47:03.517Z,26304
2017-03-27T06:48:14.511Z,41792
2017-03-27T06:49:25.511Z,41248
2017-03-27T06:50:36.504Z,39168
2017-03-27T06:51:47.497Z,52448
2017-03-27T06:52:58.488Z,58464
2017-03-27T06:54:09.492Z,59904
2017-03-27T06:55:20.482Z,63008
2017-03-27T06:56:31.473Z,64160
2017-03-27T06:57:42.475Z,63424
2017-03-27T06:58:53.471Z,65152
2017-03-27T07:00:04.516Z,67072
2017-03-27T07:01:15.710Z,67872
2017-03-27T07:02:26.759Z,65216
2017-03-27T07:03:38.011Z,60512
2017-03-27T07:04:49.014Z,56928
2017-03-27T07:06:00.231Z,56064
2017-03-27T07:07:11.237Z,58656
2017-03-27T07:08:22.240Z,61856
2017-03-27T07:09:33.450Z,64256
2017-03-27T07:10:44.455Z,65344
2017-03-27T07:11:55.662Z,66080
2017-03-27T07:13:06.684Z,67392
2017-03-27T07:14:18.350Z,68064
2017-03-27T07:15:29.357Z,63328
2017-03-27T07:16:40.362Z,56736
2017-03-27T07:17:51.365Z,62368
2017-03-27T07:19:02.380Z,72544
2017-03-27T07:20:13.379Z,73664
2017-03-27T07:21:24.589Z,73472
2017-03-27T07:22:35.607Z,62976
2017-03-27T07:23:46.625Z,43616
2017-03-27T07:24:57.899Z,49216
2017-03-27T07:26:08.912Z,61088
2017-03-27T07:27:19.923Z,67168
2017-03-27T07:28:30.973Z,73664
2017-03-27T07:29:41.984Z,73184
2017-03-27T07:30:53.034Z,70272
2017-03-27T07:32:04.057Z,60288
2017-03-27T07:33:15.275Z,50464
2017-03-27T07:34:26.288Z,49536
2017-03-27T07:35:37.320Z,51520
2017-03-27T07:36:48.326Z,47712
2017-03-27T07:37:59.332Z,40896
2017-03-27T07:39:10.559Z,45536
2017-03-27T07:40:21.588Z,56608
2017-03-27T07:41:32.646Z,57280
2017-03-27T07:42:43.688Z,58752
2017-03-27T07:43:54.915Z,57632
2017-03-27T07:45:05.917Z,61280
2017-03-27T07:46:16.924Z,75232
2017-03-27T07:47:27.928Z,70016
2017-03-27T07:48:38.943Z,74368
2017-03-27T07:49:49.954Z,78208
2017-03-27T07:51:01.161Z,75424
2017-03-27T07:52:12.220Z,76128
2017-03-27T07:53:23.223Z,76832
2017-03-27T07:54:34.447Z,76608
2017-03-27T07:55:45.462Z,75200
2017-03-27T07:56:56.671Z,76256
2017-03-27T07:58:07.888Z,78496
2017-03-27T07:59:18.902Z,78944
2017-03-27T08:00:29.919Z,82528
2017-03-27T08:01:41.124Z,84192
2017-03-27T08:02:52.227Z,83104
2017-03-27T08:04:03.240Z,81248
2017-03-27T08:05:14.257Z,81984
2017-03-27T08:06:25.464Z,82464
2017-03-27T08:07:36.466Z,82656
2017-03-27T08:08:47.474Z,81312
2017-03-27T08:09:58.494Z,79680
2017-03-27T08:11:09.509Z,80096
2017-03-27T08:12:20.722Z,81088
2017-03-27T08:13:31.749Z,81376
2017-03-27T08:14:42.965Z,78368
2017-03-27T08:15:54.179Z,79968
2017-03-27T08:17:05.194Z,83200
2017-03-27T08:18:16.206Z,82656
2017-03-27T08:19:27.230Z,82912
2017-03-27T08:20:38.259Z,84544
2017-03-27T08:21:49.270Z,84128
2017-03-27T08:23:00.484Z,84640
2017-03-27T08:24:11.754Z,84320
2017-03-27T08:25:22.967Z,82656
2017-03-27T08:26:33.987Z,81696
2017-03-27T08:27:45.001Z,80064
2017-03-27T08:28:56.024Z,80160
2017-03-27T08:30:07.051Z,80640
2017-03-27T08:31:18.070Z,80160
2017-03-27T08:32:29.093Z,80576
2017-03-27T08:33:40.101Z,84096
2017-03-27T08:34:51.364Z,87264
2017-03-27T08:36:02.382Z,88768
2017-03-27T08:37:13.407Z,88832
2017-03-27T08:38:24.429Z,86976
2017-03-27T08:39:35.445Z,85792
2017-03-27T08:40:46.454Z,85056
2017-03-27T08:41:57.490Z,87552
2017-03-27T08:43:08.511Z,91712
2017-03-27T08:44:19.525Z,84352
2017-03-27T08:45:30.795Z,88320
2017-03-27T08:46:41.805Z,86592
2017-03-27T08:47:52.819Z,85376
2017-03-27T08:49:03.850Z,83360
2017-03-27T08:50:14.905Z,83456
2017-03-27T08:51:25.915Z,84736
2017-03-27T08:52:36.954Z,85472
2017-03-27T08:53:47.969Z,85696
2017-03-27T08:54:58.996Z,86624
2017-03-27T08:56:10.012Z,88544
2017-03-27T08:57:21.012Z,91232
2017-03-27T08:58:32.037Z,93216
2017-03-27T08:59:43.059Z,92672
2017-03-27T09:00:54.542Z,90688
2017-03-27T09:02:05.604Z,88896
2017-03-27T09:03:16.630Z,90048
2017-03-27T09:04:27.651Z,88096
2017-03-27T09:05:38.661Z,85600
2017-03-27T09:06:49.674Z,84256
2017-03-27T09:08:00.695Z,82784
2017-03-27T09:09:11.717Z,82432
2017-03-27T09:10:22.736Z,82368
2017-03-27T09:11:34.159Z,81408
2017-03-27T09:12:45.184Z,80192
2017-03-27T09:13:56.408Z,81120
2017-03-27T09:15:07.423Z,81824
2017-03-27T09:16:18.690Z,81920
2017-03-27T09:17:29.705Z,82496
2017-03-27T09:18:40.729Z,84192
2017-03-27T09:19:51.946Z,84864
2017-03-27T09:21:02.960Z,83840
2017-03-27T09:22:13.986Z,81440
2017-03-27T09:23:25.022Z,81600
2017-03-27T09:24:36.045Z,82336
2017-03-27T09:25:47.056Z,79360
2017-03-27T09:26:58.082Z,76640
2017-03-27T09:28:09.106Z,79136
2017-03-27T09:29:20.117Z,78912
2017-03-27T09:30:31.130Z,78976
2017-03-27T09:31:42.143Z,76288
2017-03-27T09:32:53.164Z,74720
2017-03-27T09:34:04.186Z,74432
2017-03-27T09:35:15.207Z,78144
2017-03-27T09:36:26.210Z,80480
2017-03-27T09:37:37.217Z,82464
2017-03-27T09:38:48.269Z,81408
2017-03-27T09:39:59.304Z,73984
2017-03-27T09:41:10.317Z,71456
2017-03-27T09:42:21.335Z,75712
2017-03-27T09:43:32.376Z,79328
2017-03-27T09:44:43.415Z,75744
2017-03-27T09:45:54.450Z,70112
2017-03-27T09:47:05.713Z,72704
2017-03-27T09:48:16.737Z,78304
2017-03-27T09:49:27.748Z,82944
2017-03-27T09:50:38.755Z,84352
2017-03-27T09:51:49.973Z,80672
2017-03-27T09:53:00.990Z,78848
2017-03-27T09:54:12.009Z,79168
2017-03-27T09:55:23.034Z,79456
2017-03-27T09:56:34.055Z,75808
2017-03-27T09:57:45.277Z,78336
2017-03-27T09:58:56.291Z,78368
2017-03-27T10:00:07.316Z,77408
2017-03-27T10:01:18.328Z,79008
2017-03-27T10:02:29.395Z,77536
2017-03-27T10:03:40.477Z,76544
2017-03-27T10:04:51.531Z,78784
2017-03-27T10:06:02.554Z,81280
2017-03-27T10:07:13.579Z,79936
2017-03-27T10:08:24.806Z,76032
2017-03-27T10:09:35.824Z,73472
2017-03-27T10:10:46.833Z,48032
2017-03-27T10:11:58.048Z,35904
2017-03-27T10:13:09.064Z,53280
2017-03-27T10:14:20.076Z,72800
2017-03-27T10:15:31.099Z,75904
2017-03-27T10:16:42.106Z,69856
2017-03-27T10:17:53.371Z,70688
2017-03-27T10:19:04.394Z,74016
2017-03-27T10:20:15.419Z,72224
2017-03-27T10:21:26.438Z,72704
2017-03-27T10:22:37.454Z,71008
2017-03-27T10:23:48.507Z,72896
2017-03-27T10:24:59.539Z,71200
2017-03-27T10:26:10.558Z,69344
2017-03-27T10:27:21.574Z,70816
2017-03-27T10:28:32.645Z,73152
2017-03-27T10:29:43.665Z,70976
2017-03-27T10:30:54.685Z,69344
2017-03-27T10:32:05.907Z,69984
2017-03-27T10:33:16.939Z,67136
2017-03-27T10:34:28.354Z,64320
2017-03-27T10:35:39.366Z,65728
2017-03-27T10:36:50.575Z,65408
2017-03-27T10:38:01.597Z,63584
2017-03-27T10:39:12.617Z,61632
2017-03-27T10:40:23.640Z,61376
2017-03-27T10:41:34.646Z,61632
2017-03-27T10:42:45.865Z,61376
2017-03-27T10:43:56.885Z,61600
2017-03-27T10:45:07.895Z,59136
2017-03-27T10:46:18.907Z,56960
2017-03-27T10:47:29.917Z,61792
2017-03-27T10:48:40.954Z,59040
2017-03-27T10:49:51.970Z,56288
2017-03-27T10:51:02.991Z,54656
2017-03-27T10:52:14.010Z,53984
2017-03-27T10:53:25.029Z,54624
2017-03-27T10:54:36.049Z,51040
2017-03-27T10:55:47.061Z,50208
2017-03-27T10:56:58.284Z,49056
2017-03-27T10:58:09.299Z,46688
2017-03-27T10:59:20.574Z,47360
2017-03-27T11:00:31.594Z,46080
2017-03-27T11:01:42.811Z,42816
2017-03-27T11:02:53.833Z,42208
2017-03-27T11:04:04.845Z,42528
2017-03-27T11:05:15.882Z,43488
2017-03-27T11:06:26.889Z,43328
2017-03-27T11:07:37.902Z,43392
2017-03-27T11:08:48.910Z,39904
2017-03-27T11:09:59.981Z,39808
2017-03-27T11:11:11.004Z,40160
2017-03-27T11:12:21.999Z,38944
2017-03-27T11:13:33.021Z,37376
2017-03-27T11:14:44.040Z,39104
2017-03-27T11:15:55.047Z,37760
2017-03-27T11:17:06.057Z,39104
2017-03-27T11:18:17.113Z,36320
2017-03-27T11:19:28.134Z,35200
2017-03-27T11:20:39.145Z,37632
2017-03-27T11:21:50.157Z,38400
2017-03-27T11:23:01.182Z,37920
2017-03-27T11:24:12.393Z,35168
2017-03-27T11:25:23.605Z,35552
2017-03-27T11:26:34.864Z,35392
2017-03-27T11:27:45.892Z,36992
2017-03-27T11:28:57.099Z,33184
2017-03-27T11:30:08.315Z,32192
2017-03-27T11:31:19.325Z,33760
2017-03-27T11:32:30.338Z,32448
2017-03-27T11:33:41.353Z,35520
2017-03-27T11:34:52.366Z,35168
2017-03-27T11:36:03.640Z,38400
2017-03-27T11:37:14.860Z,35968
2017-03-27T11:38:25.874Z,36704
2017-03-27T11:39:36.892Z,34720
2017-03-27T11:40:47.902Z,31680
2017-03-27T11:41:59.120Z,33536
2017-03-27T11:43:10.130Z,29472
2017-03-27T11:44:21.176Z,24128
2017-03-27T11:45:32.206Z,23488
2017-03-27T11:46:43.476Z,23136
2017-03-27T11:47:54.713Z,24064
2017-03-27T11:49:05.950Z,23680
2017-03-27T11:50:16.976Z,22880
2017-03-27T11:51:28.005Z,22560
2017-03-27T11:52:39.017Z,23872
2017-03-27T11:53:50.273Z,24576
2017-03-27T11:55:01.502Z,25440
2017-03-27T11:56:12.737Z,25568
2017-03-27T11:57:24.228Z,26880
2017-03-27T11:58:35.255Z,29152
2017-03-27T11:59:46.260Z,28640
2017-03-27T12:00:57.282Z,29600
2017-03-27T12:02:08.328Z,30560
2017-03-27T12:03:19.386Z,30848
2017-03-27T12:04:30.601Z,28672
2017-03-27T12:05:41.825Z,28928
2017-03-27T12:06:53.028Z,27232
2017-03-27T12:08:04.294Z,26784
2017-03-27T12:09:15.301Z,28416
2017-03-27T12:10:26.325Z,27680
2017-03-27T12:11:37.334Z,28992
2017-03-27T12:12:48.342Z,28352
2017-03-27T12:13:59.306Z,27584
2017-03-27T12:15:10.323Z,26912
2017-03-27T12:16:21.347Z,26400
2017-03-27T12:17:32.373Z,25952
2017-03-27T12:18:43.632Z,24288
2017-03-27T12:19:54.647Z,24288
2017-03-27T12:21:05.705Z,24896
2017-03-27T12:22:16.918Z,25216
2017-03-27T12:23:27.936Z,23936
2017-03-27T12:24:39.137Z,22464
2017-03-27T12:25:50.175Z,21888
2017-03-27T12:27:01.196Z,20864
2017-03-27T12:28:12.204Z,20160
2017-03-27T12:29:23.512Z,19680
2017-03-27T12:30:34.513Z,19072
2017-03-27T12:31:45.542Z,18496
2017-03-27T12:32:56.575Z,17728
2017-03-27T12:34:07.634Z,16736
2017-03-27T12:35:18.646Z,15616
2017-03-27T12:36:29.892Z,14976
2017-03-27T12:37:40.925Z,13856
2017-03-27T12:38:52.194Z,12556
2017-03-27T12:40:03.460Z,12492
2017-03-27T12:41:14.500Z,12772
2017-03-27T12:42:25.533Z,11440
2017-03-27T12:43:36.551Z,10608
2017-03-27T12:44:47.777Z,11160
2017-03-27T12:45:58.788Z,10548
2017-03-27T12:47:09.788Z,9680
2017-03-27T12:48:20.833Z,9488
2017-03-27T12:49:31.882Z,9124
2017-03-27T12:50:42.943Z,10368
2017-03-27T12:51:54.151Z,10348
2017-03-27T12:53:05.156Z,9116
2017-03-27T12:54:16.385Z,9536
2017-03-27T12:55:27.422Z,9556
2017-03-27T12:56:38.448Z,8880
2017-03-27T12:57:49.483Z,8708
2017-03-27T12:59:00.690Z,8304
2017-03-27T13:00:11.903Z,7728
2017-03-27T13:01:22.978Z,7480
2017-03-27T13:02:34.001Z,7152
2017-03-27T13:03:45.022Z,7096
2017-03-27T13:04:56.022Z,7348
2017-03-27T13:06:07.035Z,7420
2017-03-27T13:07:18.027Z,7060
2017-03-27T13:08:29.229Z,6796
2017-03-27T13:09:40.251Z,6836
2017-03-27T13:10:51.252Z,6872
2017-03-27T13:12:02.729Z,6828
2017-03-27T13:13:13.754Z,6740
2017-03-27T13:14:24.963Z,6576
2017-03-27T13:15:35.958Z,6436
2017-03-27T13:16:46.953Z,6276
2017-03-27T13:17:58.166Z,6516
2017-03-27T13:19:09.216Z,6308
2017-03-27T13:20:20.209Z,6344
2017-03-27T13:21:31.227Z,6656
2017-03-27T13:22:42.435Z,6340
2017-03-27T13:23:53.642Z,5856
2017-03-27T13:25:04.655Z,6004
2017-03-27T13:26:15.667Z,6328
2017-03-27T13:27:26.666Z,6072
2017-03-27T13:28:37.922Z,6024
2017-03-27T13:29:48.925Z,6332
2017-03-27T13:30:59.919Z,6724
2017-03-27T13:32:10.922Z,6728
2017-03-27T13:33:21.939Z,6856
2017-03-27T13:34:32.957Z,6496
2017-03-27T13:35:44.161Z,6080
2017-03-27T13:36:55.188Z,6292
2017-03-27T13:38:06.437Z,6768
2017-03-27T13:39:17.443Z,6732
2017-03-27T13:40:28.442Z,6448
2017-03-27T13:41:39.448Z,6520
2017-03-27T13:42:50.856Z,6428
2017-03-27T13:44:01.863Z,6336
2017-03-27T13:45:12.872Z,6332
2017-03-27T13:46:23.877Z,6456
2017-03-27T13:47:35.081Z,6336
2017-03-27T13:48:46.349Z,6140
2017-03-27T13:49:57.350Z,5900
2017-03-27T13:51:08.366Z,6400
2017-03-27T13:52:19.365Z,6756
2017-03-27T13:53:30.552Z,6736
2017-03-27T13:54:41.553Z,6668
2017-03-27T13:55:52.548Z,6788
2017-03-27T13:57:03.563Z,6596
2017-03-27T13:58:14.762Z,6620
2017-03-27T13:59:26.256Z,7044
2017-03-27T14:00:37.249Z,7076
2017-03-27T14:01:48.448Z,6948
2017-03-27T14:02:59.434Z,7112
2017-03-27T14:04:10.837Z,7324
2017-03-27T14:05:21.852Z,7448
2017-03-27T14:06:32.851Z,7236
2017-03-27T14:07:43.851Z,7484
2017-03-27T14:08:55.272Z,7796
2017-03-27T14:10:06.532Z,7656
2017-03-27T14:11:17.521Z,7748
2017-03-27T14:12:28.916Z,7804
2017-03-27T14:13:40.114Z,7868
2017-03-27T14:14:51.526Z,8292
2017-03-27T14:16:02.531Z,8384
2017-03-27T14:17:13.930Z,7448
2017-03-27T14:18:25.147Z,7664
2017-03-27T14:19:36.154Z,8940
2017-03-27T14:20:47.198Z,9868
2017-03-27T14:21:58.192Z,10508
2017-03-27T14:23:09.195Z,10360
2017-03-27T14:24:20.398Z,11016
2017-03-27T14:25:31.591Z,10944
2017-03-27T14:26:42.800Z,10532
2017-03-27T14:27:53.804Z,9560
2017-03-27T14:29:05.000Z,10160
2017-03-27T14:30:16.006Z,11040
2017-03-27T14:31:27.061Z,11588
2017-03-27T14:32:38.066Z,9320
2017-03-27T14:33:49.062Z,9596
2017-03-27T14:35:00.267Z,9364
2017-03-27T14:36:11.285Z,9008
2017-03-27T14:37:22.288Z,6480
2017-03-27T14:38:33.282Z,5404
2017-03-27T14:39:44.284Z,4968
2017-03-27T14:40:55.491Z,4944
2017-03-27T14:42:06.707Z,4912
2017-03-27T14:43:17.704Z,4876
2017-03-27T14:44:28.708Z,4840
2017-03-27T14:45:39.708Z,4820
2017-03-27T14:46:50.722Z,4796
2017-03-27T14:48:01.971Z,4764
2017-03-27T14:49:12.986Z,4748
2017-03-27T14:50:24.006Z,4728
2017-03-27T14:51:35.203Z,4708
2017-03-27T14:52:46.411Z,4684
2017-03-27T14:53:57.600Z,4668
2017-03-27T14:55:08.826Z,4652
2017-03-27T14:56:19.832Z,4636
2017-03-27T14:57:30.838Z,4620
2017-03-27T14:58:42.295Z,4600
2017-03-27T14:59:53.496Z,4576
2017-03-27T15:01:04.501Z,4556
2017-03-27T15:02:15.501Z,4532
2017-03-27T15:03:26.530Z,4508
2017-03-27T15:04:37.555Z,4488
2017-03-27T15:05:48.552Z,4464
2017-03-27T15:06:59.554Z,4428
2017-03-27T15:08:10.553Z,4408
2017-03-27T15:09:21.805Z,4388
2017-03-27T15:10:32.803Z,4372
2017-03-27T15:11:43.804Z,4348
2017-03-27T15:12:54.814Z,4320
2017-03-27T15:14:05.823Z,4296
2017-03-27T15:15:17.024Z,4280
2017-03-27T15:16:28.027Z,4264
2017-03-27T15:17:39.225Z,4240
2017-03-27T15:18:50.226Z,4220
2017-03-27T15:20:01.242Z,4200
2017-03-27T15:21:12.230Z,4184
2017-03-27T15:22:23.232Z,4164
2017-03-27T15:23:34.434Z,4152
2017-03-27T15:24:45.439Z,4132
2017-03-27T15:25:56.430Z,4112
2017-03-27T15:27:07.432Z,4092
2017-03-27T15:28:18.628Z,4076
2017-03-27T15:29:29.627Z,4064
2017-03-27T15:30:40.878Z,4032
2017-03-27T15:31:51.885Z,4016
2017-03-27T15:33:02.896Z,3996
2017-03-27T15:34:14.097Z,3972
2017-03-27T15:35:25.088Z,3952
2017-03-27T15:36:36.083Z,3928
2017-03-27T15:37:47.082Z,3904
2017-03-27T15:38:58.088Z,3880
2017-03-27T15:40:09.484Z,3864
2017-03-27T15:41:20.732Z,3844
2017-03-27T15:42:31.729Z,3824
2017-03-27T15:43:42.726Z,3804
2017-03-27T15:44:53.727Z,3784
2017-03-27T15:46:04.928Z,3768
2017-03-27T15:47:15.918Z,3740
2017-03-27T15:48:26.924Z,3716
2017-03-27T15:49:37.921Z,3692
2017-03-27T15:50:49.110Z,3680
2017-03-27T15:52:00.109Z,3664
2017-03-27T15:53:11.104Z,3644
2017-03-27T15:54:22.138Z,3628
2017-03-27T15:55:33.163Z,3608
2017-03-27T15:56:44.363Z,3596
2017-03-27T15:57:55.815Z,3576
2017-03-27T15:59:07.006Z,3556
2017-03-27T16:00:18.212Z,3536
2017-03-27T16:01:29.198Z,3516
2017-03-27T16:02:40.405Z,3500